createdAt,value
2022-08-16T00:01:33.944Z,8.60
2022-08-16T00:04:05.261Z,9.00
2022-08-16T00:06:33.416Z,8.20
2022-08-16T00:09:01.252Z,7.80
2022-08-16T00:11:29.127Z,8.50
2022-08-16T00:13:57.864Z,8.00
2022-08-16T00:17:01.536Z,9.10
2022-08-16T00:19:28.449Z,8.10
2022-08-16T00:22:12.857Z,8.30
2022-08-16T00:24:46.945Z,8.00
2022-08-16T00:27:15.750Z,8.00
2022-08-16T00:29:45.790Z,8.90
2022-08-16T00:32:18.196Z,7.60
2022-08-16T00:34:52.619Z,8.60
2022-08-16T00:37:57.274Z,8.10
2022-08-16T00:40:34.143Z,8.10
2022-08-16T00:43:19.311Z,9.10
2022-08-16T00:46:33.533Z,8.80
2022-08-16T00:48:54.289Z,9.20
2022-08-16T00:51:25.263Z,8.80
2022-08-16T00:53:57.880Z,9.10
2022-08-16T00:56:57.113Z,8.50
2022-08-16T00:59:24.770Z,8.60
2022-08-16T01:01:54.761Z,8.60
2022-08-16T01:04:29.791Z,8.60
2022-08-16T01:07:05.171Z,10.20
2022-08-16T01:09:42.972Z,9.20
2022-08-16T01:12:26.280Z,8.70
2022-08-16T01:14:59.132Z,9.10
2022-08-16T01:17:36.713Z,9.60
2022-08-16T01:20:24.010Z,7.80
2022-08-16T01:23:58.438Z,8.30
2022-08-16T01:26:34.814Z,8.60
2022-08-16T01:29:12.518Z,8.60
2022-08-16T01:31:42.831Z,8.90
2022-08-16T01:34:22.809Z,8.90
2022-08-16T01:37:09.083Z,8.40
2022-08-16T01:39:37.424Z,8.10
2022-08-16T01:42:12.910Z,8.60
2022-08-16T01:44:43.465Z,9.00
2022-08-16T01:47:12.014Z,9.20
2022-08-16T01:50:40.851Z,9.10
2022-08-16T01:52:31.380Z,9.20
2022-08-16T01:55:01.704Z,9.40
2022-08-16T01:57:31.753Z,9.00
2022-08-16T02:00:01.876Z,9.10
2022-08-16T02:02:30.249Z,8.80
2022-08-16T02:05:00.465Z,8.90
2022-08-16T02:07:28.861Z,9.70
2022-08-16T02:09:59.862Z,8.80
2022-08-16T02:12:40.183Z,8.50
2022-08-16T02:15:25.947Z,9.30
2022-08-16T02:17:57.729Z,8.60
2022-08-16T02:20:29.158Z,8.50
2022-08-16T02:23:00.161Z,8.60
2022-08-16T02:25:52.874Z,7.40
2022-08-16T02:28:19.614Z,9.10
2022-08-16T02:30:51.630Z,9.60
2022-08-16T02:33:24.463Z,9.40
2022-08-16T02:36:14.330Z,9.60
2022-08-16T02:38:42.728Z,9.80
2022-08-16T02:41:12.251Z,9.10
2022-08-16T02:43:41.079Z,8.40
2022-08-16T02:46:10.120Z,9.50
2022-08-16T02:48:39.765Z,9.70
2022-08-16T02:51:17.265Z,8.50
2022-08-16T02:53:48.531Z,8.60
2022-08-16T02:56:18.963Z,9.00
2022-08-16T02:58:50.779Z,8.90
2022-08-16T03:01:36.881Z,9.60
2022-08-16T03:04:39.449Z,8.50
2022-08-16T03:06:57.121Z,9.00
2022-08-16T03:09:28.861Z,8.90
2022-08-16T03:12:02.447Z,8.50
2022-08-16T03:14:31.207Z,8.60
2022-08-16T03:17:02.029Z,8.70
2022-08-16T03:19:46.953Z,9.10
2022-08-16T03:22:28.184Z,8.50
2022-08-16T03:25:01.649Z,8.90
2022-08-16T03:27:33.484Z,9.20
2022-08-16T03:30:15.186Z,8.90
2022-08-16T03:32:51.539Z,8.90
2022-08-16T03:35:32.741Z,10.00
2022-08-16T03:38:05.042Z,8.90
2022-08-16T03:40:54.270Z,8.30
2022-08-16T03:43:24.484Z,7.80
2022-08-16T03:46:12.561Z,9.10
2022-08-16T03:49:00.639Z,8.40
2022-08-16T03:51:30.276Z,9.40
2022-08-16T03:54:01.212Z,9.40
2022-08-16T03:56:30.354Z,9.70
2022-08-16T03:58:58.870Z,9.20
2022-08-16T04:01:29.121Z,7.90
2022-08-16T04:03:57.425Z,8.90
2022-08-16T04:06:25.401Z,10.90
2022-08-16T04:08:54.769Z,11.10
2022-08-16T04:11:23.835Z,9.80
2022-08-16T04:14:01.097Z,8.60
2022-08-16T04:16:41.641Z,8.30
2022-08-16T04:19:09.434Z,8.80
2022-08-16T04:21:45.672Z,9.70
2022-08-16T04:24:14.910Z,9.70
2022-08-16T04:26:46.112Z,10.10
2022-08-16T04:29:23.752Z,10.30
2022-08-16T04:31:55.640Z,10.20
2022-08-16T04:34:28.017Z,10.40
2022-08-16T04:37:01.465Z,9.70
2022-08-16T04:39:45.694Z,8.40
2022-08-16T04:42:17.892Z,9.70
2022-08-16T04:44:53.572Z,9.40
2022-08-16T04:47:31.304Z,9.80
2022-08-16T04:50:15.646Z,9.90
2022-08-16T04:52:47.930Z,10.20
2022-08-16T04:55:31.956Z,10.30
2022-08-16T04:58:45.275Z,9.70
2022-08-16T05:00:57.181Z,9.70
2022-08-16T05:03:26.227Z,10.30
2022-08-16T05:05:58.898Z,10.30
2022-08-16T05:08:31.601Z,10.10
2022-08-16T05:11:09.006Z,10.60
2022-08-16T05:13:42.604Z,11.10
2022-08-16T05:16:23.290Z,10.90
2022-08-16T05:18:56.594Z,10.20
2022-08-16T05:21:38.015Z,9.80
2022-08-16T05:24:09.374Z,10.20
2022-08-16T05:26:43.299Z,10.60
2022-08-16T05:29:17.493Z,10.20
2022-08-16T05:31:53.249Z,10.00
2022-08-16T05:34:22.337Z,10.60
2022-08-16T05:36:51.529Z,9.80
2022-08-16T05:39:20.708Z,10.30
2022-08-16T05:41:52.725Z,10.50
2022-08-16T05:44:24.995Z,10.10
2022-08-16T05:47:00.965Z,10.40
2022-08-16T05:49:39.277Z,10.20
2022-08-16T05:52:13.418Z,10.70
2022-08-16T05:54:47.140Z,11.50
2022-08-16T05:57:18.070Z,10.70
2022-08-16T05:59:47.609Z,10.80
2022-08-16T06:02:21.925Z,10.90
2022-08-16T06:04:56.924Z,9.60
2022-08-16T06:07:26.606Z,10.40
2022-08-16T06:09:58.382Z,10.30
2022-08-16T06:12:29.933Z,10.50
2022-08-16T06:15:04.547Z,10.20
2022-08-16T06:17:43.914Z,11.10
2022-08-16T06:20:23.641Z,11.00
2022-08-16T06:23:03.034Z,10.70
2022-08-16T06:25:36.053Z,10.60
2022-08-16T06:28:16.862Z,11.40
2022-08-16T06:31:02.040Z,11.40
2022-08-16T06:33:30.005Z,11.20
2022-08-16T06:36:14.339Z,10.60
2022-08-16T06:38:55.647Z,11.20
2022-08-16T06:41:27.411Z,11.70
2022-08-16T06:43:56.764Z,11.40
2022-08-16T06:46:31.591Z,11.00
2022-08-16T06:49:06.497Z,11.10
2022-08-16T06:51:48.127Z,11.00
2022-08-16T06:54:16.938Z,11.00
2022-08-16T06:56:47.181Z,11.00
2022-08-16T06:59:20.317Z,11.40
2022-08-16T07:01:58.045Z,10.90
2022-08-16T07:04:31.929Z,11.60
2022-08-16T07:07:02.948Z,11.90
2022-08-16T07:09:33.839Z,11.60
2022-08-16T07:12:05.678Z,11.80
2022-08-16T07:14:34.985Z,12.60
2022-08-16T07:17:03.526Z,10.80
2022-08-16T07:20:03.599Z,12.20
2022-08-16T07:22:36.699Z,11.40
2022-08-16T07:25:08.138Z,11.90
2022-08-16T07:27:37.339Z,12.50
2022-08-16T07:30:38.826Z,12.30
2022-08-16T07:32:58.822Z,12.20
2022-08-16T07:35:27.274Z,12.80
2022-08-16T07:37:55.308Z,12.10
2022-08-16T07:40:42.790Z,11.90
2022-08-16T07:43:11.278Z,13.10
2022-08-16T07:45:39.191Z,11.70
2022-08-16T07:48:12.379Z,12.00
2022-08-16T07:50:56.660Z,12.40
2022-08-16T07:53:34.049Z,12.40
2022-08-16T07:56:11.478Z,12.80
2022-08-16T07:58:39.636Z,12.90
2022-08-16T08:01:10.572Z,14.00
2022-08-16T08:03:48.194Z,12.60
2022-08-16T08:06:21.444Z,13.90
2022-08-16T08:08:56.966Z,13.10
2022-08-16T08:11:29.840Z,13.00
2022-08-16T08:14:03.531Z,13.70
2022-08-16T08:16:33.629Z,13.10
2022-08-16T08:19:04.937Z,13.00
2022-08-16T08:22:01.493Z,12.50
2022-08-16T08:24:31.797Z,13.20
2022-08-16T08:27:04.823Z,12.00
2022-08-16T08:29:40.554Z,11.90
2022-08-16T08:32:57.293Z,13.00
2022-08-16T08:35:03.947Z,12.70
2022-08-16T08:37:55.246Z,12.30
2022-08-16T08:40:27.415Z,11.50
2022-08-16T08:43:00.850Z,10.60
2022-08-16T08:45:49.282Z,11.70
2022-08-16T08:48:34.312Z,12.10
2022-08-16T08:51:09.438Z,12.40
2022-08-16T08:53:39.877Z,12.40
2022-08-16T08:56:23.008Z,11.30
2022-08-16T08:58:59.239Z,11.70
2022-08-16T09:01:42.521Z,11.50
2022-08-16T09:04:14.847Z,12.10
2022-08-16T09:06:45.782Z,11.00
2022-08-16T09:09:16.956Z,11.60
2022-08-16T09:11:53.804Z,11.40
2022-08-16T09:14:39.051Z,10.50
2022-08-16T09:17:38.397Z,9.90
2022-08-16T09:20:08.214Z,10.80
2022-08-16T09:22:37.493Z,10.60
2022-08-16T09:25:13.045Z,10.20
2022-08-16T09:27:57.770Z,10.00
2022-08-16T09:30:43.896Z,10.80
2022-08-16T09:33:20.052Z,10.70
2022-08-16T09:35:52.915Z,10.20
2022-08-16T09:38:32.433Z,9.80
2022-08-16T09:41:14.786Z,9.60
2022-08-16T09:43:59.470Z,10.50
2022-08-16T09:46:49.021Z,10.10
2022-08-16T09:49:19.875Z,9.60
2022-08-16T09:51:55.593Z,9.80
2022-08-16T09:54:32.504Z,9.30
2022-08-16T09:57:02.469Z,8.30
2022-08-16T09:59:38.500Z,8.60
2022-08-16T10:02:27.459Z,8.90
2022-08-16T10:04:57.936Z,8.90
2022-08-16T10:07:49.065Z,8.40
2022-08-16T10:10:18.798Z,8.60
2022-08-16T10:13:16.583Z,8.20
2022-08-16T10:15:53.382Z,9.10
2022-08-16T10:18:56.811Z,9.10
2022-08-16T10:21:12.177Z,9.10
2022-08-16T10:23:40.591Z,8.70
2022-08-16T10:27:17.976Z,8.50
2022-08-16T10:29:04.879Z,8.30
2022-08-16T10:31:43.434Z,8.40
2022-08-16T10:34:30.802Z,7.60
2022-08-16T10:37:02.387Z,8.20
2022-08-16T10:39:40.878Z,8.00
2022-08-16T10:42:13.295Z,8.00
2022-08-16T10:44:42.272Z,7.80
2022-08-16T10:47:11.743Z,8.50
2022-08-16T10:49:39.588Z,8.40
2022-08-16T10:52:18.674Z,8.40
2022-08-16T10:57:35.348Z,7.90
2022-08-16T11:00:20.867Z,8.10
2022-08-16T11:02:58.363Z,7.90
2022-08-16T11:08:31.329Z,7.10
2022-08-16T11:11:12.751Z,8.50
2022-08-16T11:14:10.850Z,8.40
2022-08-16T11:19:24.910Z,7.80
2022-08-16T11:24:44.982Z,7.60
2022-08-16T11:27:23.541Z,8.50
2022-08-16T11:29:56.018Z,7.90
2022-08-16T11:32:31.956Z,8.00
2022-08-16T11:35:14.901Z,8.10
2022-08-16T11:38:46.621Z,7.60
2022-08-16T11:40:56.943Z,7.80
2022-08-16T11:43:34.098Z,7.80
2022-08-16T11:46:43.482Z,8.10
2022-08-16T11:48:56.378Z,7.90
2022-08-16T11:51:24.387Z,7.60
2022-08-16T11:53:53.224Z,7.40
2022-08-16T11:56:39.565Z,7.80
2022-08-16T11:59:10.597Z,7.50
2022-08-16T12:01:44.185Z,7.40
2022-08-16T12:04:24.047Z,7.80
2022-08-16T12:06:54.644Z,7.50
2022-08-16T12:09:24.926Z,7.40
2022-08-16T12:12:03.064Z,7.70
2022-08-16T12:14:35.344Z,6.80
2022-08-16T12:17:09.410Z,6.60
2022-08-16T12:19:38.578Z,7.40
2022-08-16T12:22:18.605Z,7.10
2022-08-16T12:24:52.865Z,7.60
2022-08-16T12:27:26.319Z,7.50
2022-08-16T12:29:58.398Z,7.50
2022-08-16T12:32:39.450Z,7.70
2022-08-16T12:35:20.746Z,7.10
2022-08-16T12:37:50.063Z,7.10
2022-08-16T12:40:34.157Z,7.40
2022-08-16T12:43:07.993Z,7.10
2022-08-16T12:45:45.028Z,7.80
2022-08-16T12:48:37.708Z,6.60
2022-08-16T12:51:20.065Z,7.90
2022-08-16T12:53:56.419Z,8.40
2022-08-16T12:56:33.648Z,7.40
2022-08-16T12:59:14.743Z,7.30
2022-08-16T13:01:50.633Z,8.00
2022-08-16T13:04:33.170Z,7.50
2022-08-16T13:07:04.939Z,7.40
2022-08-16T13:09:43.265Z,7.20
2022-08-16T13:12:20.081Z,6.90
2022-08-16T13:14:51.707Z,6.80
2022-08-16T13:17:26.273Z,7.00
2022-08-16T13:20:11.315Z,7.30
2022-08-16T13:22:55.217Z,6.90
2022-08-16T13:25:26.516Z,7.50
2022-08-16T13:28:14.854Z,7.40
2022-08-16T13:30:52.623Z,7.40
2022-08-16T13:33:39.498Z,6.70
2022-08-16T13:36:38.447Z,7.20
2022-08-16T13:39:13.800Z,6.90
2022-08-16T13:41:42.257Z,7.50
2022-08-16T13:44:10.961Z,7.20
2022-08-16T13:46:51.609Z,6.90
2022-08-16T13:49:22.088Z,6.90
2022-08-16T13:51:51.145Z,6.20
2022-08-16T13:54:19.094Z,7.10
2022-08-16T13:56:46.872Z,7.00
2022-08-16T13:59:20.238Z,7.20
2022-08-16T14:01:59.821Z,6.70
2022-08-16T14:04:35.418Z,7.30
2022-08-16T14:07:09.447Z,6.80
2022-08-16T14:09:38.599Z,6.70
2022-08-16T14:12:25.404Z,6.90
2022-08-16T14:14:57.272Z,6.40
2022-08-16T14:17:27.657Z,6.70
2022-08-16T14:19:59.731Z,6.00
2022-08-16T14:22:35.997Z,6.50
2022-08-16T14:25:16.872Z,6.50
2022-08-16T14:27:47.421Z,6.60
2022-08-16T14:30:19.725Z,6.30
2022-08-16T14:32:50.827Z,5.90
2022-08-16T14:35:29.387Z,6.20
2022-08-16T14:38:18.376Z,6.00
2022-08-16T14:40:53.206Z,6.30
2022-08-16T14:43:29.844Z,6.00
2022-08-16T14:46:03.164Z,6.40
2022-08-16T14:48:35.985Z,6.10
2022-08-16T14:51:04.307Z,6.30
2022-08-16T14:53:38.026Z,6.70
2022-08-16T14:56:09.052Z,6.00
2022-08-16T14:58:55.370Z,5.80
2022-08-16T15:01:58.134Z,5.90
2022-08-16T15:04:39.806Z,6.30
2022-08-16T15:07:13.666Z,6.50
2022-08-16T15:10:01.026Z,7.30
2022-08-16T15:12:34.025Z,4.60
2022-08-16T15:15:16.692Z,5.50
2022-08-16T15:17:57.502Z,3.60
2022-08-16T15:20:53.479Z,4.10
2022-08-16T15:23:33.902Z,3.80
2022-08-16T15:26:34.642Z,3.60
2022-08-16T15:30:09.145Z,2.90
2022-08-16T15:33:23.553Z,3.10
2022-08-16T15:35:58.517Z,2.60
2022-08-16T15:38:43.525Z,3.80
2022-08-16T15:41:42.782Z,3.20
2022-08-16T15:44:23.642Z,4.20
2022-08-16T15:47:43.235Z,3.60
2022-08-16T15:51:26.763Z,2.70
2022-08-16T15:54:31.011Z,3.60
2022-08-16T15:57:16.875Z,3.50
2022-08-16T15:59:52.555Z,3.40
2022-08-16T16:02:30.835Z,3.60
2022-08-16T16:05:09.575Z,3.50
2022-08-16T16:07:41.046Z,3.70
2022-08-16T16:10:35.370Z,4.30
2022-08-16T16:13:26.988Z,3.80
2022-08-16T16:16:16.682Z,3.60
2022-08-16T16:19:33.228Z,3.20
2022-08-16T16:26:23.133Z,3.30
2022-08-16T16:29:08.122Z,2.80
2022-08-16T16:31:59.783Z,3.00
2022-08-16T16:34:32.259Z,2.70
2022-08-16T16:37:01.515Z,3.30
2022-08-16T16:39:32.590Z,2.80
2022-08-16T16:42:01.355Z,3.00
2022-08-16T16:44:36.296Z,2.40
2022-08-16T16:47:04.531Z,2.60
2022-08-16T16:49:33.840Z,2.90
2022-08-16T16:52:06.552Z,3.40
2022-08-16T16:54:35.824Z,3.40
2022-08-16T16:57:04.311Z,3.30
2022-08-16T16:59:32.120Z,3.50
2022-08-16T17:02:41.545Z,3.70
2022-08-16T17:04:48.847Z,3.90
2022-08-16T17:07:17.284Z,4.30
2022-08-16T17:09:47.229Z,4.10
2022-08-16T17:12:23.579Z,4.00
2022-08-16T17:14:55.264Z,3.80
2022-08-16T17:17:23.869Z,3.80
2022-08-16T17:19:52.463Z,3.90
2022-08-16T17:22:23.448Z,4.10
2022-08-16T17:24:53.678Z,4.10
2022-08-16T17:27:34.179Z,4.00
2022-08-16T17:30:15.923Z,4.40
2022-08-16T17:32:54.339Z,4.30
2022-08-16T17:35:34.086Z,4.60
2022-08-16T17:38:07.574Z,4.40
2022-08-16T17:40:55.176Z,4.50
2022-08-16T17:43:33.306Z,6.20
2022-08-16T17:46:03.043Z,5.60
2022-08-16T17:48:31.915Z,6.20
2022-08-16T17:51:00.327Z,5.50
2022-08-16T17:53:29.769Z,5.70
2022-08-16T17:55:58.252Z,5.60
2022-08-16T17:58:27.109Z,5.30
2022-08-16T18:00:59.949Z,5.50
2022-08-16T18:04:07.713Z,5.70
2022-08-16T18:06:25.863Z,5.60
2022-08-16T18:09:01.638Z,6.70
2022-08-16T18:11:34.075Z,5.20
2022-08-16T18:14:02.216Z,5.10
2022-08-16T18:16:30.429Z,5.20
2022-08-16T18:19:00.102Z,5.50
2022-08-16T18:21:47.575Z,4.80
2022-08-16T18:24:15.682Z,5.30
2022-08-16T18:26:43.769Z,5.00
2022-08-16T18:29:12.722Z,5.40
2022-08-16T18:31:42.909Z,5.60
2022-08-16T18:34:10.986Z,5.50
2022-08-16T18:36:39.024Z,5.10
2022-08-16T18:39:07.278Z,5.10
2022-08-16T18:41:37.438Z,5.60
2022-08-16T18:44:26.632Z,6.00
2022-08-16T18:46:56.203Z,4.90
2022-08-16T18:49:24.711Z,4.40
2022-08-16T18:51:58.747Z,4.90
2022-08-16T18:54:28.826Z,4.80
2022-08-16T18:56:59.176Z,5.40
2022-08-16T18:59:30.405Z,4.80
2022-08-16T19:02:05.078Z,4.80
2022-08-16T19:04:55.916Z,5.40
2022-08-16T19:07:30.606Z,5.70
2022-08-16T19:10:05.114Z,5.70
2022-08-16T19:12:38.123Z,5.40
2022-08-16T19:15:20.622Z,6.00
2022-08-16T19:17:49.258Z,5.30
2022-08-16T19:20:23.636Z,5.20
2022-08-16T19:23:05.777Z,5.30
2022-08-16T19:25:49.008Z,5.60
2022-08-16T19:28:49.841Z,5.70
2022-08-16T19:31:30.013Z,6.80
2022-08-16T19:33:59.228Z,6.10
2022-08-16T19:36:35.047Z,6.60
2022-08-16T19:39:15.708Z,6.50
2022-08-16T19:41:53.132Z,5.50
2022-08-16T19:44:23.367Z,6.50
2022-08-16T19:46:51.881Z,5.70
2022-08-16T19:49:19.847Z,5.80
2022-08-16T19:51:48.730Z,6.10
2022-08-16T19:54:17.179Z,6.10
2022-08-16T19:56:45.174Z,6.40
2022-08-16T19:59:19.871Z,6.00
2022-08-16T20:01:52.768Z,6.90
2022-08-16T20:04:22.905Z,5.90
2022-08-16T20:06:53.562Z,6.30
2022-08-16T20:09:23.591Z,6.30
2022-08-16T20:11:54.812Z,7.20
2022-08-16T20:14:25.161Z,7.30
2022-08-16T20:16:59.589Z,6.60
2022-08-16T20:19:36.138Z,6.90
2022-08-16T20:22:35.628Z,6.90
2022-08-16T20:25:11.514Z,6.70
2022-08-16T20:27:41.150Z,5.90
2022-08-16T20:30:15.098Z,6.30
2022-08-16T20:32:45.893Z,6.30
2022-08-16T20:35:17.972Z,6.00
2022-08-16T20:37:47.910Z,6.50
2022-08-16T20:40:34.666Z,6.50
2022-08-16T20:43:11.676Z,5.50
2022-08-16T20:45:43.652Z,5.90
2022-08-16T20:48:12.659Z,5.10
2022-08-16T20:50:41.499Z,5.40
2022-08-16T20:53:10.362Z,6.40
2022-08-16T20:55:40.710Z,5.70
2022-08-16T20:58:08.739Z,5.40
2022-08-16T21:00:37.427Z,5.60
2022-08-16T21:03:11.625Z,6.20
2022-08-16T21:05:40.327Z,5.90
2022-08-16T21:08:50.930Z,6.60
2022-08-16T21:10:57.912Z,6.00
2022-08-16T21:13:25.855Z,5.80
2022-08-16T21:15:54.162Z,5.50
2022-08-16T21:18:22.345Z,6.10
2022-08-16T21:20:51.351Z,5.80
2022-08-16T21:23:20.128Z,5.60
2022-08-16T21:25:58.312Z,5.60
2022-08-16T21:28:41.100Z,6.00
2022-08-16T21:31:13.027Z,6.80
2022-08-16T21:33:42.793Z,6.40
2022-08-16T21:36:12.113Z,5.50
2022-08-16T21:38:40.679Z,6.20
2022-08-16T21:41:13.221Z,5.80
2022-08-16T21:43:41.680Z,6.10
2022-08-16T21:46:09.584Z,6.40
2022-08-16T21:48:40.732Z,6.30
2022-08-16T21:51:14.608Z,6.80
2022-08-16T21:53:44.152Z,6.70
2022-08-16T21:56:16.601Z,6.20
2022-08-16T21:58:46.483Z,6.60
2022-08-16T22:01:25.107Z,6.30
2022-08-16T22:04:27.174Z,6.70
2022-08-16T22:06:43.179Z,6.60
2022-08-16T22:09:15.590Z,6.40
2022-08-16T22:11:44.980Z,6.50
2022-08-16T22:14:13.013Z,6.30
2022-08-16T22:16:41.989Z,6.40
2022-08-16T22:19:11.712Z,6.50
2022-08-16T22:21:39.528Z,6.80
2022-08-16T22:24:07.711Z,6.40
2022-08-16T22:26:42.783Z,6.20
2022-08-16T22:29:14.806Z,6.40
2022-08-16T22:31:44.523Z,5.80
2022-08-16T22:34:13.867Z,6.50
2022-08-16T22:36:42.553Z,6.10
2022-08-16T22:39:14.211Z,6.30
2022-08-16T22:41:45.760Z,6.50
2022-08-16T22:44:13.817Z,6.10
2022-08-16T22:46:41.652Z,5.60
2022-08-16T22:49:10.819Z,5.80
2022-08-16T22:51:39.134Z,6.20
2022-08-16T22:54:47.429Z,6.80
2022-08-16T22:56:56.653Z,6.70
2022-08-16T22:59:25.381Z,6.50
2022-08-16T23:01:53.701Z,6.70
2022-08-16T23:04:22.551Z,6.90
2022-08-16T23:06:51.607Z,6.90
2022-08-16T23:09:19.726Z,7.00
2022-08-16T23:11:49.666Z,6.20
2022-08-16T23:14:29.037Z,6.80
2022-08-16T23:19:43.138Z,6.00
2022-08-16T23:22:10.899Z,7.00
2022-08-16T23:24:56.156Z,6.50
2022-08-16T23:27:24.282Z,6.60
2022-08-16T23:29:52.822Z,7.20
2022-08-16T23:32:20.594Z,6.50
2022-08-16T23:34:48.442Z,6.80
2022-08-16T23:37:20.858Z,6.60
2022-08-16T23:39:48.714Z,6.40
2022-08-16T23:42:52.838Z,6.00
2022-08-16T23:45:11.157Z,6.40
2022-08-16T23:47:38.917Z,6.90
2022-08-16T23:50:06.926Z,6.60
2022-08-16T23:52:54.789Z,7.40
2022-08-16T23:55:23.286Z,6.90
2022-08-16T23:57:52.871Z,6.90
